createdAt,value
2023-03-10T00:00:52.254Z,21.18
2023-03-10T00:01:52.333Z,21.17
2023-03-10T00:02:52.404Z,21.16
2023-03-10T00:03:52.494Z,21.16
2023-03-10T00:04:52.628Z,21.16
2023-03-10T00:05:52.925Z,21.16
2023-03-10T00:06:52.718Z,21.16
2023-03-10T00:07:52.800Z,21.16
2023-03-10T00:08:52.885Z,21.15
2023-03-10T00:09:52.953Z,21.15
2023-03-10T00:10:53.088Z,21.15
2023-03-10T00:11:53.122Z,21.15
2023-03-10T00:12:53.208Z,21.15
2023-03-10T00:13:53.375Z,21.15
2023-03-10T00:14:53.370Z,21.15
2023-03-10T00:15:53.470Z,21.15
2023-03-10T00:16:53.522Z,21.15
2023-03-10T00:17:53.589Z,21.16
2023-03-10T00:18:53.699Z,21.15
2023-03-10T00:19:53.776Z,21.15
2023-03-10T01:45:01.053Z,21.10
2023-03-10T01:48:01.025Z,21.10
2023-03-10T01:49:01.120Z,21.10
2023-03-10T01:50:01.205Z,21.10
2023-03-10T01:51:01.319Z,21.11
2023-03-10T01:52:01.360Z,21.10
2023-03-10T01:53:01.437Z,21.10
2023-03-10T01:54:01.519Z,21.10
2023-03-10T01:55:01.593Z,21.11
2023-03-10T01:56:01.686Z,21.10
2023-03-10T01:57:01.759Z,21.10
2023-03-10T01:58:01.854Z,21.10
2023-03-10T01:59:01.912Z,21.10
2023-03-10T02:00:02.031Z,21.09
2023-03-10T02:01:02.137Z,21.10
2023-03-10T02:02:02.200Z,21.09
2023-03-10T02:03:02.240Z,21.09
2023-03-10T02:04:02.319Z,21.09
2023-03-10T02:05:02.402Z,21.09
2023-03-10T02:06:02.561Z,21.09
2023-03-10T02:07:02.564Z,21.09
2023-03-10T02:08:02.638Z,21.09
2023-03-10T02:09:02.724Z,21.09
2023-03-10T02:10:02.842Z,21.09
2023-03-10T02:11:02.905Z,21.09
2023-03-10T02:12:02.975Z,21.09
2023-03-10T02:13:03.127Z,21.09
2023-03-10T02:14:03.140Z,21.10
2023-03-10T02:15:03.225Z,21.10
2023-03-10T02:16:03.965Z,21.10
2023-03-10T02:17:03.397Z,21.10
2023-03-10T02:18:03.657Z,21.09
2023-03-10T02:19:04.409Z,21.09
2023-03-10T02:20:03.644Z,21.09
2023-03-10T02:21:03.738Z,21.09
2023-03-10T02:22:03.866Z,21.09
2023-03-10T02:23:03.896Z,21.09
2023-03-10T02:24:03.980Z,21.09
2023-03-10T02:25:04.062Z,21.09
2023-03-10T03:51:10.991Z,21.11
2023-03-10T03:52:11.086Z,21.11
2023-03-10T03:53:11.432Z,21.11
2023-03-10T03:54:11.227Z,21.12
2023-03-10T03:55:11.300Z,21.11
2023-03-10T03:56:11.390Z,21.11
2023-03-10T03:57:11.462Z,21.11
2023-03-10T03:58:11.547Z,21.11
2023-03-10T03:59:11.614Z,21.11
2023-03-10T04:00:11.687Z,21.11
2023-03-10T04:01:11.776Z,21.10
2023-03-10T04:02:11.902Z,21.12
2023-03-10T04:03:11.954Z,21.11
2023-03-10T04:04:12.006Z,21.11
2023-03-10T04:05:12.094Z,21.12
2023-03-10T04:06:12.166Z,21.11
2023-03-10T04:07:12.246Z,21.10
2023-03-10T04:08:12.349Z,21.11
2023-03-10T05:59:21.016Z,21.10
2023-03-10T06:00:21.057Z,21.10
2023-03-10T06:01:21.112Z,21.10
2023-03-10T06:02:21.184Z,21.10
2023-03-10T06:03:21.347Z,21.10
2023-03-10T06:04:21.356Z,21.11
2023-03-10T06:05:21.409Z,21.11
2023-03-10T06:06:21.522Z,21.11
2023-03-10T06:07:21.566Z,21.12
2023-03-10T06:08:21.630Z,21.11
2023-03-10T06:09:21.716Z,21.12
2023-03-10T06:10:21.878Z,21.12
2023-03-10T06:11:21.894Z,21.12
2023-03-10T06:12:21.950Z,21.12
2023-03-10T06:13:22.066Z,21.11
2023-03-10T06:14:22.101Z,21.12
2023-03-10T06:15:22.181Z,21.11
2023-03-10T06:16:22.293Z,21.12
2023-03-10T06:17:22.339Z,21.11
2023-03-10T06:18:22.413Z,21.11
2023-03-10T06:19:22.499Z,21.12
2023-03-10T06:20:23.462Z,21.12
2023-03-10T06:21:22.641Z,21.12
2023-03-10T06:22:22.713Z,21.13
2023-03-10T06:23:22.788Z,21.13
2023-03-10T06:24:22.869Z,21.13
2023-03-10T06:25:22.924Z,21.17
2023-03-10T06:26:23.006Z,21.19
2023-03-10T06:27:23.034Z,21.21
2023-03-10T06:28:23.070Z,21.24
2023-03-10T06:29:24.061Z,21.24
2023-03-10T06:30:23.074Z,21.25
2023-03-10T06:31:23.175Z,21.27
2023-03-10T06:32:23.131Z,21.27
2023-03-10T06:33:23.091Z,21.27
2023-03-10T06:34:23.095Z,21.27
2023-03-10T06:35:23.895Z,21.28
2023-03-10T06:36:23.092Z,21.28
2023-03-10T06:37:23.941Z,21.28
2023-03-10T06:38:23.098Z,21.28
2023-03-10T06:39:23.115Z,21.28
2023-03-10T06:40:23.103Z,21.27
2023-03-10T06:41:23.130Z,21.27
2023-03-10T06:42:23.156Z,21.27
2023-03-10T06:43:23.137Z,21.27
2023-03-10T06:44:23.160Z,21.27
2023-03-10T06:45:23.208Z,21.27
2023-03-10T06:46:23.302Z,21.27
2023-03-10T06:47:23.326Z,21.25
2023-03-10T06:48:23.375Z,21.25
2023-03-10T06:49:23.429Z,21.26
2023-03-10T06:50:23.487Z,21.24
2023-03-10T06:51:23.539Z,21.25
2023-03-10T06:52:23.597Z,21.25
2023-03-10T06:53:23.659Z,21.25
2023-03-10T06:54:23.718Z,21.24
2023-03-10T06:55:23.790Z,21.24
2023-03-10T06:56:23.859Z,21.23
2023-03-10T06:57:23.917Z,21.24
2023-03-10T06:58:23.983Z,21.23
2023-03-10T06:59:24.040Z,21.24
2023-03-10T08:28:27.614Z,22.22
2023-03-10T08:29:27.617Z,22.17
2023-03-10T08:30:27.610Z,22.12
2023-03-10T08:31:27.716Z,22.06
2023-03-10T08:32:27.684Z,22.00
2023-03-10T08:33:27.621Z,21.91
2023-03-10T08:34:27.651Z,21.83
2023-03-10T08:35:27.643Z,21.75
2023-03-10T08:36:27.668Z,21.67
2023-03-10T08:37:27.711Z,21.57
2023-03-10T08:38:27.688Z,21.52
2023-03-10T08:39:27.819Z,21.48
2023-03-10T08:40:27.698Z,21.43
2023-03-10T08:41:27.727Z,21.38
2023-03-10T08:42:27.750Z,21.34
2023-03-10T08:43:27.789Z,21.29
2023-03-10T08:44:27.871Z,21.27
2023-03-10T08:45:27.843Z,21.25
2023-03-10T08:46:27.899Z,21.23
2023-03-10T08:48:27.878Z,21.18
2023-03-10T08:49:27.907Z,21.17
2023-03-10T08:50:27.928Z,21.18
2023-03-10T08:51:27.939Z,21.19
2023-03-10T08:52:27.949Z,21.22
2023-03-10T08:53:27.966Z,21.26
2023-03-10T08:54:27.980Z,21.29
2023-03-10T10:22:31.956Z,22.53
2023-03-10T11:07:28.884Z,22.63
2023-03-10T11:09:28.848Z,22.62
2023-03-10T11:10:28.844Z,22.62
2023-03-10T11:14:29.475Z,22.58
2023-03-10T13:02:33.615Z,22.27
2023-03-10T13:03:31.232Z,22.27
2023-03-10T13:04:30.986Z,22.27
2023-03-10T13:05:30.948Z,22.27
2023-03-10T13:06:30.952Z,22.27
2023-03-10T13:07:30.949Z,22.27
2023-03-10T13:08:30.948Z,22.26
2023-03-10T13:09:30.960Z,22.26
2023-03-10T13:11:30.964Z,22.26
2023-03-10T13:12:30.966Z,22.26
2023-03-10T13:13:30.954Z,22.26
2023-03-10T13:14:30.965Z,22.26
2023-03-10T13:15:30.981Z,22.26
2023-03-10T13:16:30.987Z,22.26
2023-03-10T13:17:30.960Z,22.26
2023-03-10T13:18:30.966Z,22.26
2023-03-10T13:19:30.972Z,22.26
2023-03-10T13:20:31.012Z,22.26
2023-03-10T13:21:31.104Z,22.25
2023-03-10T13:22:30.974Z,22.25
2023-03-10T13:23:30.976Z,22.25
2023-03-10T13:24:30.983Z,22.25
2023-03-10T13:25:30.997Z,22.24
2023-03-10T13:26:31.011Z,22.24
2023-03-10T13:27:30.998Z,22.24
2023-03-10T13:28:31.020Z,22.24
2023-03-10T13:29:31.021Z,22.23
2023-03-10T13:30:31.104Z,22.23
2023-03-10T13:31:31.087Z,22.23
2023-03-10T13:32:31.085Z,22.23
2023-03-10T13:33:33.605Z,22.23
2023-03-10T13:34:31.039Z,22.23
2023-03-10T13:35:31.209Z,22.22
2023-03-10T13:36:31.049Z,22.22
2023-03-10T13:37:31.038Z,22.22
2023-03-10T13:38:31.039Z,22.22
2023-03-10T13:39:31.033Z,22.21
2023-03-10T13:40:31.043Z,22.21
2023-03-10T13:41:31.040Z,22.21
2023-03-10T13:42:43.333Z,22.20
2023-03-10T13:43:32.030Z,22.19
2023-03-10T13:44:31.041Z,22.19
2023-03-10T13:45:31.281Z,22.18
2023-03-10T13:46:31.126Z,22.19
2023-03-10T13:47:31.027Z,22.18
2023-03-10T13:48:31.032Z,22.18
2023-03-10T13:49:31.039Z,22.17
2023-03-10T13:54:31.047Z,22.15
2023-03-10T13:55:31.040Z,22.14
2023-03-10T13:56:31.068Z,22.14
2023-03-10T13:57:31.613Z,22.13
2023-03-10T13:58:31.155Z,22.12
2023-03-10T13:59:31.196Z,22.12
2023-03-10T14:00:31.336Z,22.11
2023-03-10T14:02:31.421Z,22.11
2023-03-10T14:03:31.644Z,22.11
2023-03-10T14:28:32.786Z,22.05
2023-03-10T15:48:39.128Z,21.78
2023-03-10T16:04:39.665Z,21.73
2023-03-10T16:05:39.029Z,21.72
2023-03-10T16:06:39.058Z,21.72
2023-03-10T16:07:39.094Z,21.72
2023-03-10T16:08:39.104Z,21.72
2023-03-10T16:09:39.169Z,21.71
2023-03-10T16:10:39.191Z,21.71
2023-03-10T16:11:39.313Z,21.70
2023-03-10T16:12:39.437Z,21.70
2023-03-10T16:13:39.604Z,21.70
2023-03-10T16:14:39.653Z,21.70
2023-03-10T16:15:39.682Z,21.70
2023-03-10T16:16:40.190Z,21.69
2023-03-10T16:17:39.720Z,21.69
2023-03-10T16:18:39.743Z,21.68
2023-03-10T16:19:39.773Z,21.68
2023-03-10T16:20:39.790Z,21.69
2023-03-10T16:21:39.816Z,21.68
2023-03-10T16:22:39.916Z,21.66
2023-03-10T16:23:39.941Z,21.66
2023-03-10T16:24:39.960Z,21.66
2023-03-10T16:25:40.714Z,21.65
2023-03-10T16:26:40.075Z,21.65
2023-03-10T16:27:40.040Z,21.65
2023-03-10T16:28:40.066Z,21.65
2023-03-10T16:29:40.110Z,21.64
2023-03-10T16:30:40.182Z,21.63
2023-03-10T16:31:40.270Z,21.63
2023-03-10T16:32:40.381Z,21.62
2023-03-10T16:33:40.304Z,21.62
2023-03-10T16:34:40.322Z,21.62
2023-03-10T16:35:40.403Z,21.62
2023-03-10T16:36:40.471Z,21.61
2023-03-10T16:37:40.550Z,21.60
2023-03-10T16:38:40.576Z,21.60
2023-03-10T16:39:40.597Z,21.60
2023-03-10T16:40:40.630Z,21.60
2023-03-10T16:41:40.657Z,21.59
2023-03-10T16:42:40.697Z,21.58
2023-03-10T16:43:40.721Z,21.58
2023-03-10T16:44:40.759Z,21.58
2023-03-10T16:45:40.809Z,21.57
2023-03-10T16:46:40.881Z,21.57
2023-03-10T16:47:40.881Z,21.57
2023-03-10T16:48:40.900Z,21.57
2023-03-10T16:49:40.941Z,21.56
2023-03-10T16:50:40.973Z,21.55
2023-03-10T16:51:41.008Z,21.54
2023-03-10T16:52:41.046Z,21.54
2023-03-10T16:53:41.089Z,21.53
2023-03-10T16:54:41.211Z,21.52
2023-03-10T16:55:41.157Z,21.53
2023-03-10T16:56:41.215Z,21.51
2023-03-10T16:57:41.240Z,21.52
2023-03-10T16:58:41.283Z,21.51
2023-03-10T16:59:41.337Z,21.51
2023-03-10T17:00:41.394Z,21.51
2023-03-10T17:01:41.391Z,21.51
2023-03-10T17:02:41.443Z,21.51
2023-03-10T17:03:41.595Z,21.51
2023-03-10T17:04:41.512Z,21.52
2023-03-10T17:05:41.554Z,21.52
2023-03-10T17:06:41.622Z,21.52
2023-03-10T17:07:54.736Z,21.53
2023-03-10T17:08:42.671Z,21.53
2023-03-10T17:09:41.675Z,21.53
2023-03-10T17:10:44.195Z,21.53
2023-03-10T17:11:41.838Z,21.53
2023-03-10T17:12:41.857Z,21.53
2023-03-10T17:13:41.879Z,21.54
2023-03-10T17:14:41.902Z,21.54
2023-03-10T17:15:42.645Z,21.54
2023-03-10T17:16:42.018Z,21.53
2023-03-10T17:17:42.000Z,21.53
2023-03-10T17:18:42.086Z,21.54
2023-03-10T17:19:42.059Z,21.54
2023-03-10T17:20:42.094Z,21.55
2023-03-10T17:21:42.149Z,21.54
2023-03-10T17:22:42.181Z,21.54
2023-03-10T17:23:43.178Z,21.55
2023-03-10T17:24:42.243Z,21.55
2023-03-10T17:25:42.274Z,21.55
2023-03-10T17:26:42.288Z,21.55
2023-03-10T17:27:43.746Z,21.54
2023-03-10T17:28:42.352Z,21.55
2023-03-10T17:29:42.386Z,21.55
2023-03-10T17:30:42.408Z,21.54
2023-03-10T17:31:42.451Z,21.54
2023-03-10T17:32:42.494Z,21.55
2023-03-10T17:33:43.520Z,21.54
2023-03-10T17:34:42.525Z,21.55
2023-03-10T17:35:42.628Z,21.54
2023-03-10T17:36:42.608Z,21.54
2023-03-10T17:37:42.622Z,21.55
2023-03-10T17:38:42.650Z,21.54
2023-03-10T17:39:42.678Z,21.55
2023-03-10T17:40:42.723Z,21.55
2023-03-10T17:53:43.126Z,21.53
2023-03-10T17:54:43.153Z,21.53
2023-03-10T17:55:43.199Z,21.53
2023-03-10T17:56:43.301Z,21.53
2023-03-10T17:57:43.318Z,21.53
2023-03-10T17:58:43.337Z,21.53
2023-03-10T17:59:43.371Z,21.53
2023-03-10T18:00:43.456Z,21.53
2023-03-10T18:01:43.422Z,21.53
2023-03-10T18:02:43.586Z,21.52
2023-03-10T18:03:43.485Z,21.52
2023-03-10T18:04:43.509Z,21.52
2023-03-10T18:05:43.578Z,21.53
2023-03-10T18:06:43.586Z,21.52
2023-03-10T18:07:43.616Z,21.53
2023-03-10T18:08:43.714Z,21.53
2023-03-10T18:09:43.757Z,21.53
2023-03-10T18:10:43.719Z,21.53
2023-03-10T18:11:43.804Z,21.53
2023-03-10T18:12:43.831Z,21.52
2023-03-10T18:13:44.672Z,21.52
2023-03-10T18:14:44.676Z,21.52
2023-03-10T18:15:44.068Z,21.52
2023-03-10T18:16:43.976Z,21.52
2023-03-10T18:17:43.999Z,21.52
2023-03-10T18:18:44.126Z,21.52
2023-03-10T18:19:44.139Z,21.52
2023-03-10T18:20:44.698Z,21.52
2023-03-10T18:21:44.318Z,21.51
2023-03-10T18:22:44.360Z,21.52
2023-03-10T18:23:44.322Z,21.51
2023-03-10T18:24:44.367Z,21.51
2023-03-10T18:25:44.544Z,21.51
2023-03-10T18:26:44.457Z,21.52
2023-03-10T18:27:44.478Z,21.52
2023-03-10T18:28:44.536Z,21.51
2023-03-10T18:29:44.571Z,21.51
2023-03-10T18:30:44.646Z,21.51
2023-03-10T18:31:44.635Z,21.51
2023-03-10T18:32:44.780Z,21.51
2023-03-10T18:33:44.731Z,21.51
2023-03-10T18:34:44.749Z,21.50
2023-03-10T18:35:44.861Z,21.51
2023-03-10T18:36:44.902Z,21.51
2023-03-10T18:37:44.860Z,21.51
2023-03-10T18:38:44.913Z,21.52
2023-03-10T18:39:44.925Z,21.52
2023-03-10T18:40:44.973Z,21.50
2023-03-10T18:41:45.066Z,21.50
2023-03-10T18:42:45.037Z,21.50
2023-03-10T18:43:45.074Z,21.50
2023-03-10T18:44:45.682Z,21.51
2023-03-10T18:45:45.142Z,21.50
2023-03-10T18:46:45.275Z,21.51
2023-03-10T18:47:46.867Z,21.50
2023-03-10T18:48:45.244Z,21.50
2023-03-10T18:49:45.265Z,21.50
2023-03-10T18:50:45.313Z,21.50
2023-03-10T18:51:45.333Z,21.51
2023-03-10T18:52:45.380Z,21.50
2023-03-10T18:53:45.420Z,21.51
2023-03-10T18:54:45.448Z,21.51
2023-03-10T18:55:45.496Z,21.50
2023-03-10T18:56:45.516Z,21.50
2023-03-10T18:57:45.580Z,21.50
2023-03-10T18:58:45.592Z,21.50
2023-03-10T18:59:45.614Z,21.50
2023-03-10T19:00:45.658Z,21.51
2023-03-10T19:01:45.772Z,21.51
2023-03-10T19:02:45.786Z,21.50
2023-03-10T19:03:45.786Z,21.50
2023-03-10T19:04:45.870Z,21.50
2023-03-10T19:05:45.856Z,21.49
2023-03-10T19:06:45.892Z,21.50
2023-03-10T19:07:45.996Z,21.50
2023-03-10T19:08:45.981Z,21.50
2023-03-10T19:09:46.018Z,21.51
2023-03-10T19:10:46.044Z,21.50
2023-03-10T19:11:46.101Z,21.50
2023-03-10T19:12:46.115Z,21.50
2023-03-10T19:13:46.163Z,21.51
2023-03-10T19:14:46.195Z,21.51
2023-03-10T19:15:46.254Z,21.50
2023-03-10T19:16:46.277Z,21.50
2023-03-10T19:17:46.315Z,21.50
2023-03-10T19:18:46.345Z,21.49
2023-03-10T19:19:46.375Z,21.49
2023-03-10T19:20:46.506Z,21.50
2023-03-10T19:21:46.446Z,21.49
2023-03-10T19:22:46.562Z,21.50
2023-03-10T19:23:46.588Z,21.50
2023-03-10T19:24:46.615Z,21.50
2023-03-10T19:25:46.639Z,21.50
2023-03-10T19:26:46.678Z,21.50
2023-03-10T19:27:46.709Z,21.50
2023-03-10T19:28:46.753Z,21.50
2023-03-10T19:29:46.827Z,21.50
2023-03-10T19:30:46.860Z,21.50
2023-03-10T19:31:46.947Z,21.49
2023-03-10T19:32:46.941Z,21.50
2023-03-10T19:33:46.953Z,21.50
2023-03-10T19:34:47.085Z,21.50
2023-03-10T19:35:47.181Z,21.50
2023-03-10T19:36:47.211Z,21.49
2023-03-10T19:37:47.321Z,21.49
2023-03-10T19:38:47.219Z,21.49
2023-03-10T19:39:47.265Z,21.49
2023-03-10T19:40:47.291Z,21.49
2023-03-10T19:41:47.322Z,21.48
2023-03-10T19:42:47.375Z,21.49
2023-03-10T19:43:47.468Z,21.49
2023-03-10T19:44:47.463Z,21.49
2023-03-10T19:45:47.493Z,21.49
2023-03-10T19:46:47.577Z,21.49
2023-03-10T19:47:47.577Z,21.49
2023-03-10T19:48:47.602Z,21.49
2023-03-10T19:49:47.632Z,21.49
2023-03-10T19:50:47.686Z,21.48
2023-03-10T19:51:47.718Z,21.48
2023-03-10T19:52:47.769Z,21.49
2023-03-10T19:53:47.795Z,21.49
2023-03-10T19:54:47.858Z,21.48
2023-03-10T19:55:47.862Z,21.49
2023-03-10T19:56:47.901Z,21.49
2023-03-10T19:57:47.926Z,21.49
2023-03-10T19:58:47.960Z,21.49
2023-03-10T19:59:48.096Z,21.48
2023-03-10T20:00:48.087Z,21.49
2023-03-10T20:01:48.073Z,21.48
2023-03-10T20:02:48.121Z,21.48
2023-03-10T20:03:48.250Z,21.48
2023-03-10T20:04:48.191Z,21.49
2023-03-10T20:05:48.220Z,21.48
2023-03-10T20:06:48.263Z,21.48
2023-03-10T20:07:48.359Z,21.48
2023-03-10T20:08:48.330Z,21.48
2023-03-10T20:09:48.459Z,21.48
2023-03-10T20:10:48.400Z,21.47
2023-03-10T20:11:48.441Z,21.48
2023-03-10T20:12:48.513Z,21.48
2023-03-10T20:13:48.532Z,21.48
2023-03-10T20:14:48.550Z,21.48
2023-03-10T20:15:48.587Z,21.48
2023-03-10T20:16:48.750Z,21.47
2023-03-10T20:17:48.685Z,21.48
2023-03-10T20:18:48.702Z,21.48
2023-03-10T20:19:48.740Z,21.48
2023-03-10T20:21:48.866Z,21.47
2023-03-10T20:22:49.211Z,21.48
2023-03-10T20:23:48.998Z,21.48
2023-03-10T20:24:49.026Z,21.48
2023-03-10T20:25:49.007Z,21.48
2023-03-10T20:26:49.015Z,21.48
2023-03-10T20:27:49.710Z,21.47
2023-03-10T20:28:49.704Z,21.48
2023-03-10T20:29:49.120Z,21.48
2023-03-10T20:30:49.163Z,21.47
2023-03-10T20:31:49.234Z,21.47
2023-03-10T20:32:49.292Z,21.47
2023-03-10T20:33:49.288Z,21.46
2023-03-10T20:34:49.320Z,21.47
2023-03-10T20:35:49.393Z,21.47
2023-03-10T20:36:49.421Z,21.47
2023-03-10T20:37:49.453Z,21.47
2023-03-10T20:38:49.500Z,21.46
2023-03-10T20:39:49.545Z,21.47
2023-03-10T20:40:49.600Z,21.46
2023-03-10T20:41:49.624Z,21.46
2023-03-10T20:42:49.744Z,21.47
2023-03-10T20:43:49.721Z,21.46
2023-03-10T20:44:49.782Z,21.47
2023-03-10T20:45:49.857Z,21.47
2023-03-10T20:46:49.912Z,21.46
2023-03-10T20:47:49.910Z,21.47
2023-03-10T20:48:49.947Z,21.47
2023-03-10T20:49:49.980Z,21.46
2023-03-10T20:50:50.017Z,21.46
2023-03-10T20:51:50.055Z,21.46
2023-03-10T20:52:50.094Z,21.47
2023-03-10T20:53:50.142Z,21.46
2023-03-10T20:54:50.181Z,21.46
2023-03-10T20:55:50.223Z,21.47
2023-03-10T20:56:50.262Z,21.46
2023-03-10T20:57:50.378Z,21.46
2023-03-10T20:58:50.362Z,21.46
2023-03-10T20:59:50.389Z,21.47
2023-03-10T21:00:51.272Z,21.46
2023-03-10T21:01:50.462Z,21.46
2023-03-10T21:02:50.518Z,21.46
2023-03-10T21:03:50.583Z,21.46
2023-03-10T21:04:50.681Z,21.46
2023-03-10T21:05:50.642Z,21.46
2023-03-10T21:06:50.689Z,21.46
2023-03-10T21:07:50.697Z,21.46
2023-03-10T21:08:50.744Z,21.46
2023-03-10T21:09:50.793Z,21.46
2023-03-10T21:10:50.872Z,21.46
2023-03-10T21:11:50.860Z,21.46
2023-03-10T21:12:50.900Z,21.45
2023-03-10T21:13:50.931Z,21.46
2023-03-10T21:14:50.985Z,21.46
2023-03-10T21:15:51.022Z,21.46
2023-03-10T21:16:51.198Z,21.45
2023-03-10T21:17:51.134Z,21.45
2023-03-10T21:18:51.233Z,21.45
2023-03-10T21:19:51.206Z,21.45
2023-03-10T21:20:51.281Z,21.45
2023-03-10T21:21:51.333Z,21.45
2023-03-10T21:22:51.365Z,21.45
2023-03-10T21:23:51.396Z,21.45
2023-03-10T21:24:51.457Z,21.45
2023-03-10T21:25:51.533Z,21.45
2023-03-10T21:26:51.577Z,21.45
2023-03-10T21:27:51.625Z,21.45
2023-03-10T21:28:51.664Z,21.45
2023-03-10T21:29:51.715Z,21.45
2023-03-10T21:30:51.758Z,21.45
2023-03-10T21:31:51.811Z,21.45
2023-03-10T21:32:51.873Z,21.45
2023-03-10T21:33:51.863Z,21.45
2023-03-10T21:34:51.902Z,21.45
2023-03-10T21:35:52.870Z,21.45
2023-03-10T21:36:52.083Z,21.44
2023-03-10T21:37:52.125Z,21.45
2023-03-10T21:38:52.098Z,21.45
2023-03-10T21:39:52.139Z,21.44
2023-03-10T21:40:52.163Z,21.44
2023-03-10T21:41:52.212Z,21.44
2023-03-10T21:42:52.247Z,21.44
2023-03-10T21:43:52.299Z,21.44
2023-03-10T21:44:53.231Z,21.44
2023-03-10T21:45:52.437Z,21.44
2023-03-10T21:46:52.431Z,21.45
2023-03-10T21:47:52.448Z,21.44
2023-03-10T21:48:52.485Z,21.44
2023-03-10T21:49:52.616Z,21.43
2023-03-10T21:50:52.582Z,21.44
2023-03-10T21:51:52.608Z,21.44
2023-03-10T21:52:52.657Z,21.43
2023-03-10T21:53:52.696Z,21.43
2023-03-10T21:54:52.723Z,21.44
2023-03-10T21:55:52.783Z,21.44
2023-03-10T21:56:52.800Z,21.44
2023-03-10T21:57:52.859Z,21.44
2023-03-10T21:58:52.907Z,21.44
2023-03-10T21:59:52.930Z,21.44
2023-03-10T22:00:56.008Z,21.44
2023-03-10T22:01:53.036Z,21.44
2023-03-10T22:02:53.733Z,21.44
2023-03-10T22:03:53.005Z,21.43
2023-03-10T22:04:53.789Z,21.43
2023-03-10T22:05:53.036Z,21.43
2023-03-10T22:06:53.063Z,21.43
2023-03-10T22:07:53.151Z,21.43
2023-03-10T22:08:53.081Z,21.43
2023-03-10T22:09:53.075Z,21.43
2023-03-10T22:10:53.109Z,21.43
2023-03-10T22:11:53.110Z,21.42
2023-03-10T22:12:53.123Z,21.44
2023-03-10T22:13:53.141Z,21.43
2023-03-10T22:14:53.153Z,21.43
2023-03-10T22:15:53.180Z,21.43
2023-03-10T22:16:53.192Z,21.44
2023-03-10T22:17:53.201Z,21.43
2023-03-10T22:18:53.214Z,21.43
2023-03-10T22:19:53.736Z,21.44
2023-03-10T22:20:53.245Z,21.43
2023-03-10T22:21:53.270Z,21.43
2023-03-10T22:22:53.284Z,21.43
2023-03-10T22:23:53.300Z,21.44
2023-03-10T22:24:53.302Z,21.43
2023-03-10T22:25:53.325Z,21.43
2023-03-10T22:26:53.351Z,21.43
2023-03-10T22:27:53.359Z,21.43
2023-03-10T22:28:53.380Z,21.43
2023-03-10T22:29:54.240Z,21.43
2023-03-10T22:30:53.442Z,21.43
2023-03-10T22:31:53.469Z,21.43
2023-03-10T22:32:53.507Z,21.43
2023-03-10T22:33:53.456Z,21.43
2023-03-10T22:34:53.472Z,21.42
2023-03-10T22:35:53.554Z,21.43
2023-03-10T22:36:53.534Z,21.43
2023-03-10T22:37:53.518Z,21.43
2023-03-10T22:38:53.532Z,21.43
2023-03-10T22:39:53.621Z,21.43
2023-03-10T22:40:53.559Z,21.42
2023-03-10T22:41:53.571Z,21.42
2023-03-10T22:42:53.577Z,21.42
2023-03-10T22:43:53.746Z,21.42
2023-03-10T22:44:53.596Z,21.42
2023-03-10T22:45:53.611Z,21.41
2023-03-10T22:46:53.670Z,21.41
2023-03-10T22:47:53.643Z,21.42
2023-03-10T22:48:53.665Z,21.42
2023-03-10T22:49:53.672Z,21.41
2023-03-10T22:50:53.681Z,21.42
2023-03-10T22:51:53.696Z,21.41
2023-03-10T22:52:53.706Z,21.41
2023-03-10T22:53:54.244Z,21.41
2023-03-10T22:54:53.736Z,21.41
2023-03-10T22:55:53.758Z,21.42
2023-03-10T22:56:53.777Z,21.42
2023-03-10T22:57:53.822Z,21.42
2023-03-10T22:58:53.820Z,21.42
2023-03-10T22:59:53.818Z,21.41
2023-03-10T23:00:53.838Z,21.41
2023-03-10T23:01:53.893Z,21.42
2023-03-10T23:02:54.004Z,21.41
2023-03-10T23:03:53.899Z,21.42
2023-03-10T23:04:53.918Z,21.41
2023-03-10T23:05:54.821Z,21.41
2023-03-10T23:06:53.961Z,21.41
2023-03-10T23:07:53.977Z,21.41
2023-03-10T23:08:53.987Z,21.41
2023-03-10T23:09:54.007Z,21.41
2023-03-10T23:10:54.025Z,21.41
2023-03-10T23:11:54.059Z,21.41
2023-03-10T23:12:54.109Z,21.41
2023-03-10T23:13:54.146Z,21.41
2023-03-10T23:14:54.179Z,21.41
2023-03-10T23:15:54.260Z,21.40
2023-03-10T23:16:54.332Z,21.41
2023-03-10T23:17:54.299Z,21.40
2023-03-10T23:18:54.398Z,21.40
2023-03-10T23:19:54.383Z,21.41
2023-03-10T23:20:54.423Z,21.40
2023-03-10T23:21:54.462Z,21.40
2023-03-10T23:22:54.499Z,21.41
2023-03-10T23:23:54.538Z,21.40
2023-03-10T23:24:54.587Z,21.41
2023-03-10T23:25:54.635Z,21.40
2023-03-10T23:26:54.673Z,21.39
2023-03-10T23:27:54.719Z,21.40
2023-03-10T23:28:54.778Z,21.40
2023-03-10T23:29:54.813Z,21.41
2023-03-10T23:30:54.854Z,21.40
2023-03-10T23:31:54.935Z,21.40
2023-03-10T23:32:54.992Z,21.41
2023-03-10T23:33:54.993Z,21.41
2023-03-10T23:34:55.064Z,21.40
2023-03-10T23:35:55.136Z,21.40
2023-03-10T23:36:55.159Z,21.40
2023-03-10T23:37:55.204Z,21.40
2023-03-10T23:38:55.235Z,21.40
2023-03-10T23:39:55.301Z,21.39
2023-03-10T23:40:55.434Z,21.39
2023-03-10T23:41:55.367Z,21.40
2023-03-10T23:42:55.422Z,21.40
2023-03-10T23:43:55.457Z,21.39
2023-03-10T23:44:55.760Z,21.40
2023-03-10T23:45:55.583Z,21.39
2023-03-10T23:46:55.602Z,21.39
2023-03-10T23:47:55.638Z,21.39
2023-03-10T23:48:55.678Z,21.39
2023-03-10T23:49:55.731Z,21.39
2023-03-10T23:51:55.823Z,21.39
